sensor_id;sensor_type;location;lat;lon;timestamp;pressure;altitude;pressure_sealevel;temperature;humidity
51468;BME280;37545;45.302;-122.946;2023-01-24T00:01:26;102593.16;;;11.50;57.62
51468;BME280;37545;45.302;-122.946;2023-01-24T00:03:55;102593.06;;;11.49;57.96
51468;BME280;37545;45.302;-122.946;2023-01-24T00:06:23;102590.31;;;11.46;58.23
51468;BME280;37545;45.302;-122.946;2023-01-24T00:08:54;102582.28;;;11.41;58.39
51468;BME280;37545;45.302;-122.946;2023-01-24T00:11:23;102575.03;;;11.36;58.71
51468;BME280;37545;45.302;-122.946;2023-01-24T00:13:51;102580.06;;;11.32;58.51
51468;BME280;37545;45.302;-122.946;2023-01-24T00:16:21;102583.13;;;11.25;58.57
51468;BME280;37545;45.302;-122.946;2023-01-24T00:18:49;102587.16;;;11.20;59.03
51468;BME280;37545;45.302;-122.946;2023-01-24T00:21:19;102592.16;;;11.17;58.86
51468;BME280;37545;45.302;-122.946;2023-01-24T00:23:49;102587.59;;;11.13;59.68
51468;BME280;37545;45.302;-122.946;2023-01-24T00:26:21;102597.69;;;11.08;60.07
51468;BME280;37545;45.302;-122.946;2023-01-24T00:28:50;102596.47;;;11.02;59.29
51468;BME280;37545;45.302;-122.946;2023-01-24T00:31:18;102587.00;;;10.87;59.99
51468;BME280;37545;45.302;-122.946;2023-01-24T00:33:47;102602.00;;;10.78;61.64
51468;BME280;37545;45.302;-122.946;2023-01-24T00:36:16;102591.72;;;10.65;59.84
51468;BME280;37545;45.302;-122.946;2023-01-24T00:38:45;102594.16;;;10.47;61.31
51468;BME280;37545;45.302;-122.946;2023-01-24T00:41:13;102593.63;;;10.38;62.38
51468;BME280;37545;45.302;-122.946;2023-01-24T00:43:44;102598.59;;;10.35;62.54
51468;BME280;37545;45.302;-122.946;2023-01-24T00:46:12;102591.94;;;10.25;62.96
51468;BME280;37545;45.302;-122.946;2023-01-24T00:48:47;102598.25;;;10.29;64.36
51468;BME280;37545;45.302;-122.946;2023-01-24T00:51:16;102594.41;;;10.23;63.96
51468;BME280;37545;45.302;-122.946;2023-01-24T00:53:44;102600.91;;;10.17;64.03
51468;BME280;37545;45.302;-122.946;2023-01-24T00:56:13;102595.28;;;10.09;63.32
51468;BME280;37545;45.302;-122.946;2023-01-24T00:58:43;102595.81;;;10.03;63.04
51468;BME280;37545;45.302;-122.946;2023-01-24T01:01:11;102588.56;;;9.98;64.53
51468;BME280;37545;45.302;-122.946;2023-01-24T01:03:40;102590.59;;;9.89;63.96
51468;BME280;37545;45.302;-122.946;2023-01-24T01:06:12;102583.84;;;9.77;64.57
51468;BME280;37545;45.302;-122.946;2023-01-24T01:08:41;102592.03;;;9.70;65.08
51468;BME280;37545;45.302;-122.946;2023-01-24T01:11:09;102591.75;;;9.65;64.94
51468;BME280;37545;45.302;-122.946;2023-01-24T01:13:38;102587.09;;;9.60;65.50
51468;BME280;37545;45.302;-122.946;2023-01-24T01:16:10;102593.66;;;9.55;65.63
51468;BME280;37545;45.302;-122.946;2023-01-24T01:18:40;102578.97;;;9.40;65.56
51468;BME280;37545;45.302;-122.946;2023-01-24T01:21:11;102594.59;;;9.29;66.96
51468;BME280;37545;45.302;-122.946;2023-01-24T01:23:40;102594.69;;;9.17;68.32
51468;BME280;37545;45.302;-122.946;2023-01-24T01:26:14;102587.13;;;9.07;71.62
51468;BME280;37545;45.302;-122.946;2023-01-24T01:28:43;102591.00;;;9.00;73.21
51468;BME280;37545;45.302;-122.946;2023-01-24T01:31:14;102589.75;;;8.93;73.80
51468;BME280;37545;45.302;-122.946;2023-01-24T01:33:43;102586.63;;;8.86;71.31
51468;BME280;37545;45.302;-122.946;2023-01-24T01:36:12;102593.38;;;8.84;71.05
51468;BME280;37545;45.302;-122.946;2023-01-24T01:38:40;102600.81;;;8.79;70.63
51468;BME280;37545;45.302;-122.946;2023-01-24T01:41:10;102598.81;;;8.75;70.22
51468;BME280;37545;45.302;-122.946;2023-01-24T01:43:39;102606.38;;;8.72;71.87
51468;BME280;37545;45.302;-122.946;2023-01-24T01:46:31;102594.03;;;8.68;72.40
51468;BME280;37545;45.302;-122.946;2023-01-24T01:49:02;102606.56;;;8.62;71.36
51468;BME280;37545;45.302;-122.946;2023-01-24T01:51:38;102612.09;;;8.54;72.31
51468;BME280;37545;45.302;-122.946;2023-01-24T01:54:15;102614.03;;;8.45;72.71
51468;BME280;37545;45.302;-122.946;2023-01-24T01:56:48;102606.25;;;8.32;73.56
51468;BME280;37545;45.302;-122.946;2023-01-24T01:59:21;102604.94;;;8.25;74.83
51468;BME280;37545;45.302;-122.946;2023-01-24T02:01:53;102607.19;;;8.21;74.31
51468;BME280;37545;45.302;-122.946;2023-01-24T02:04:25;102612.91;;;8.16;73.74
51468;BME280;37545;45.302;-122.946;2023-01-24T02:06:58;102619.31;;;8.10;73.81
51468;BME280;37545;45.302;-122.946;2023-01-24T02:09:31;102618.22;;;8.06;74.18
51468;BME280;37545;45.302;-122.946;2023-01-24T02:12:01;102623.03;;;8.02;75.49
51468;BME280;37545;45.302;-122.946;2023-01-24T02:14:31;102619.38;;;7.98;75.62
51468;BME280;37545;45.302;-122.946;2023-01-24T02:17:20;102621.50;;;7.92;75.41
51468;BME280;37545;45.302;-122.946;2023-01-24T02:20:07;102616.94;;;7.88;76.01
51468;BME280;37545;45.302;-122.946;2023-01-24T02:22:44;102618.28;;;7.83;76.38
51468;BME280;37545;45.302;-122.946;2023-01-24T02:25:23;102624.13;;;7.80;76.80
51468;BME280;37545;45.302;-122.946;2023-01-24T02:27:56;102622.13;;;7.76;76.86
51468;BME280;37545;45.302;-122.946;2023-01-24T02:30:25;102615.94;;;7.74;76.88
51468;BME280;37545;45.302;-122.946;2023-01-24T02:32:54;102614.88;;;7.70;76.22
51468;BME280;37545;45.302;-122.946;2023-01-24T02:35:25;102622.47;;;7.69;77.09
51468;BME280;37545;45.302;-122.946;2023-01-24T02:37:55;102627.41;;;7.66;76.16
51468;BME280;37545;45.302;-122.946;2023-01-24T02:40:27;102626.41;;;7.64;76.86
51468;BME280;37545;45.302;-122.946;2023-01-24T02:43:03;102626.09;;;7.59;77.29
51468;BME280;37545;45.302;-122.946;2023-01-24T02:45:34;102631.13;;;7.58;78.21
51468;BME280;37545;45.302;-122.946;2023-01-24T02:48:03;102630.22;;;7.57;78.33
51468;BME280;37545;45.302;-122.946;2023-01-24T02:50:32;102636.94;;;7.55;78.53
51468;BME280;37545;45.302;-122.946;2023-01-24T02:53:21;102630.78;;;7.53;78.62
51468;BME280;37545;45.302;-122.946;2023-01-24T02:55:58;102641.34;;;7.56;79.20
51468;BME280;37545;45.302;-122.946;2023-01-24T02:58:45;102633.47;;;7.54;79.27
51468;BME280;37545;45.302;-122.946;2023-01-24T03:01:14;102645.22;;;7.51;79.08
51468;BME280;37545;45.302;-122.946;2023-01-24T03:03:44;102640.66;;;7.47;78.85
51468;BME280;37545;45.302;-122.946;2023-01-24T03:06:15;102643.81;;;7.43;79.68
51468;BME280;37545;45.302;-122.946;2023-01-24T03:08:44;102642.91;;;7.42;80.34
51468;BME280;37545;45.302;-122.946;2023-01-24T03:11:13;102640.97;;;7.40;80.62
51468;BME280;37545;45.302;-122.946;2023-01-24T03:13:41;102637.44;;;7.38;80.43
51468;BME280;37545;45.302;-122.946;2023-01-24T03:16:28;102646.72;;;7.36;81.93
51468;BME280;37545;45.302;-122.946;2023-01-24T03:19:13;102649.03;;;7.32;82.01
51468;BME280;37545;45.302;-122.946;2023-01-24T03:21:59;102657.38;;;7.28;81.19
51468;BME280;37545;45.302;-122.946;2023-01-24T03:24:44;102651.97;;;7.25;80.84
51468;BME280;37545;45.302;-122.946;2023-01-24T03:27:29;102657.00;;;7.24;80.31
51468;BME280;37545;45.302;-122.946;2023-01-24T03:30:15;102655.09;;;7.21;80.58
51468;BME280;37545;45.302;-122.946;2023-01-24T03:33:02;102649.72;;;7.18;81.09
51468;BME280;37545;45.302;-122.946;2023-01-24T03:35:49;102655.22;;;7.11;82.80
51468;BME280;37545;45.302;-122.946;2023-01-24T03:38:24;102668.50;;;7.05;84.89
51468;BME280;37545;45.302;-122.946;2023-01-24T03:41:09;102669.19;;;7.03;86.32
51468;BME280;37545;45.302;-122.946;2023-01-24T03:43:38;102664.59;;;6.99;86.98
51468;BME280;37545;45.302;-122.946;2023-01-24T03:46:07;102661.78;;;6.96;88.52
51468;BME280;37545;45.302;-122.946;2023-01-24T03:48:37;102667.81;;;6.96;87.79
51468;BME280;37545;45.302;-122.946;2023-01-24T03:51:05;102659.22;;;6.96;86.84
51468;BME280;37545;45.302;-122.946;2023-01-24T03:53:50;102669.63;;;6.97;86.63
51468;BME280;37545;45.302;-122.946;2023-01-24T03:56:19;102664.00;;;6.91;86.38
51468;BME280;37545;45.302;-122.946;2023-01-24T03:58:48;102680.81;;;6.98;85.47
51468;BME280;37545;45.302;-122.946;2023-01-24T04:01:20;102675.44;;;6.95;86.18
51468;BME280;37545;45.302;-122.946;2023-01-24T04:03:50;102689.56;;;7.00;86.57
51468;BME280;37545;45.302;-122.946;2023-01-24T04:06:19;102693.69;;;6.98;87.06
51468;BME280;37545;45.302;-122.946;2023-01-24T04:08:47;102699.63;;;6.97;86.85
51468;BME280;37545;45.302;-122.946;2023-01-24T04:11:16;102693.47;;;6.95;86.80
51468;BME280;37545;45.302;-122.946;2023-01-24T04:13:45;102702.06;;;6.95;87.65
51468;BME280;37545;45.302;-122.946;2023-01-24T04:16:13;102701.19;;;6.95;87.94
51468;BME280;37545;45.302;-122.946;2023-01-24T04:18:44;102681.00;;;6.89;87.58
51468;BME280;37545;45.302;-122.946;2023-01-24T04:21:14;102690.53;;;6.90;88.98
51468;BME280;37545;45.302;-122.946;2023-01-24T04:23:43;102707.00;;;6.92;88.18
51468;BME280;37545;45.302;-122.946;2023-01-24T04:26:11;102708.91;;;6.95;88.72
51468;BME280;37545;45.302;-122.946;2023-01-24T04:28:40;102699.63;;;6.97;88.41
51468;BME280;37545;45.302;-122.946;2023-01-24T04:31:08;102704.19;;;7.01;86.97
51468;BME280;37545;45.302;-122.946;2023-01-24T04:33:37;102693.13;;;7.02;86.48
51468;BME280;37545;45.302;-122.946;2023-01-24T04:36:06;102686.75;;;6.97;88.57
51468;BME280;37545;45.302;-122.946;2023-01-24T04:38:41;102685.16;;;6.87;91.23
51468;BME280;37545;45.302;-122.946;2023-01-24T04:41:09;102682.81;;;6.78;92.07
51468;BME280;37545;45.302;-122.946;2023-01-24T04:43:40;102690.16;;;6.74;93.75
51468;BME280;37545;45.302;-122.946;2023-01-24T04:46:09;102695.06;;;6.70;95.33
51468;BME280;37545;45.302;-122.946;2023-01-24T04:48:37;102698.44;;;6.69;95.57
51468;BME280;37545;45.302;-122.946;2023-01-24T04:51:06;102698.53;;;6.71;95.31
51468;BME280;37545;45.302;-122.946;2023-01-24T04:53:40;102698.78;;;6.74;94.62
51468;BME280;37545;45.302;-122.946;2023-01-24T04:56:09;102702.38;;;6.76;94.80
51468;BME280;37545;45.302;-122.946;2023-01-24T04:58:38;102700.91;;;6.80;93.81
51468;BME280;37545;45.302;-122.946;2023-01-24T05:01:07;102703.81;;;6.84;92.47
51468;BME280;37545;45.302;-122.946;2023-01-24T05:03:35;102689.28;;;6.85;92.12
51468;BME280;37545;45.302;-122.946;2023-01-24T05:06:04;102696.91;;;6.83;91.76
51468;BME280;37545;45.302;-122.946;2023-01-24T05:08:33;102703.81;;;6.84;92.89
51468;BME280;37545;45.302;-122.946;2023-01-24T05:11:03;102712.56;;;6.86;92.27
51468;BME280;37545;45.302;-122.946;2023-01-24T05:13:32;102709.31;;;6.89;93.13
51468;BME280;37545;45.302;-122.946;2023-01-24T05:16:02;102713.03;;;6.92;92.26
51468;BME280;37545;45.302;-122.946;2023-01-24T05:18:30;102713.94;;;6.93;91.92
51468;BME280;37545;45.302;-122.946;2023-01-24T05:21:05;102708.78;;;6.93;91.24
51468;BME280;37545;45.302;-122.946;2023-01-24T05:23:34;102708.00;;;6.94;92.05
51468;BME280;37545;45.302;-122.946;2023-01-24T05:26:05;102706.06;;;6.91;91.79
51468;BME280;37545;45.302;-122.946;2023-01-24T05:28:33;102702.75;;;6.92;92.08
51468;BME280;37545;45.302;-122.946;2023-01-24T05:31:04;102701.50;;;6.87;92.30
51468;BME280;37545;45.302;-122.946;2023-01-24T05:33:33;102704.84;;;6.86;92.16
51468;BME280;37545;45.302;-122.946;2023-01-24T05:36:04;102716.94;;;6.87;92.77
51468;BME280;37545;45.302;-122.946;2023-01-24T05:38:33;102707.41;;;6.86;93.04
51468;BME280;37545;45.302;-122.946;2023-01-24T05:41:06;102714.38;;;6.87;92.27
51468;BME280;37545;45.302;-122.946;2023-01-24T05:49:35;102714.72;;;6.92;92.52
51468;BME280;37545;45.302;-122.946;2023-01-24T05:57:32;102727.78;;;6.83;94.58
51468;BME280;37545;45.302;-122.946;2023-01-24T06:00:46;102737.59;;;6.77;94.43
51468;BME280;37545;45.302;-122.946;2023-01-24T06:03:30;102745.19;;;6.76;96.11
51468;BME280;37545;45.302;-122.946;2023-01-24T06:06:11;102746.78;;;6.74;97.10
51468;BME280;37545;45.302;-122.946;2023-01-24T06:09:08;102745.63;;;6.70;97.26
51468;BME280;37545;45.302;-122.946;2023-01-24T06:11:40;102753.34;;;6.70;95.72
51468;BME280;37545;45.302;-122.946;2023-01-24T06:14:10;102762.38;;;6.65;96.73
51468;BME280;37545;45.302;-122.946;2023-01-24T06:16:39;102751.22;;;6.64;97.19
51468;BME280;37545;45.302;-122.946;2023-01-24T06:19:09;102757.25;;;6.65;97.50
51468;BME280;37545;45.302;-122.946;2023-01-24T06:21:43;102765.19;;;6.68;97.53
51468;BME280;37545;45.302;-122.946;2023-01-24T06:24:18;102755.25;;;6.72;98.07
51468;BME280;37545;45.302;-122.946;2023-01-24T06:26:48;102758.03;;;6.76;97.12
51468;BME280;37545;45.302;-122.946;2023-01-24T06:29:20;102754.59;;;6.75;96.26
51468;BME280;37545;45.302;-122.946;2023-01-24T06:31:59;102758.63;;;6.71;96.11
51468;BME280;37545;45.302;-122.946;2023-01-24T06:37:32;102761.84;;;6.69;96.99
51468;BME280;37545;45.302;-122.946;2023-01-24T06:40:09;102772.69;;;6.65;97.38
51468;BME280;37545;45.302;-122.946;2023-01-24T06:42:39;102765.50;;;6.61;97.64
51468;BME280;37545;45.302;-122.946;2023-01-24T06:45:11;102774.22;;;6.63;97.12
51468;BME280;37545;45.302;-122.946;2023-01-24T06:47:39;102784.88;;;6.67;98.06
51468;BME280;37545;45.302;-122.946;2023-01-24T06:50:13;102785.22;;;6.72;98.17
51468;BME280;37545;45.302;-122.946;2023-01-24T06:52:44;102791.63;;;6.77;97.51
51468;BME280;37545;45.302;-122.946;2023-01-24T06:55:14;102801.16;;;6.78;98.04
51468;BME280;37545;45.302;-122.946;2023-01-24T06:57:43;102798.81;;;6.81;96.87
51468;BME280;37545;45.302;-122.946;2023-01-24T07:00:15;102796.59;;;6.86;97.18
51468;BME280;37545;45.302;-122.946;2023-01-24T07:02:44;102803.66;;;6.88;96.04
51468;BME280;37545;45.302;-122.946;2023-01-24T07:05:13;102798.50;;;6.88;96.25
51468;BME280;37545;45.302;-122.946;2023-01-24T07:07:41;102802.13;;;6.80;94.38
51468;BME280;37545;45.302;-122.946;2023-01-24T07:10:10;102792.41;;;6.76;96.27
51468;BME280;37545;45.302;-122.946;2023-01-24T07:12:42;102798.84;;;6.71;97.60
51468;BME280;37545;45.302;-122.946;2023-01-24T07:15:10;102806.69;;;6.72;98.76
51468;BME280;37545;45.302;-122.946;2023-01-24T07:17:41;102800.13;;;6.76;97.92
51468;BME280;37545;45.302;-122.946;2023-01-24T07:20:11;102792.41;;;6.76;97.77
51468;BME280;37545;45.302;-122.946;2023-01-24T07:22:41;102776.63;;;6.71;99.36
51468;BME280;37545;45.302;-122.946;2023-01-24T07:25:13;102790.38;;;6.72;98.53
51468;BME280;37545;45.302;-122.946;2023-01-24T07:27:43;102793.97;;;6.74;99.16
51468;BME280;37545;45.302;-122.946;2023-01-24T07:30:13;102788.38;;;6.80;98.18
51468;BME280;37545;45.302;-122.946;2023-01-24T07:32:43;102792.88;;;6.82;98.62
51468;BME280;37545;45.302;-122.946;2023-01-24T07:35:12;102798.38;;;6.87;97.79
51468;BME280;37545;45.302;-122.946;2023-01-24T07:37:40;102783.94;;;6.89;97.22
51468;BME280;37545;45.302;-122.946;2023-01-24T07:40:10;102769.03;;;6.85;97.47
51468;BME280;37545;45.302;-122.946;2023-01-24T07:42:39;102770.91;;;6.76;99.87
51468;BME280;37545;45.302;-122.946;2023-01-24T07:45:08;102787.94;;;6.74;99.93
51468;BME280;37545;45.302;-122.946;2023-01-24T07:47:36;102789.06;;;6.77;100.00
51468;BME280;37545;45.302;-122.946;2023-01-24T07:50:08;102793.66;;;6.81;99.36
51468;BME280;37545;45.302;-122.946;2023-01-24T07:52:36;102794.00;;;6.86;98.67
51468;BME280;37545;45.302;-122.946;2023-01-24T07:55:05;102792.47;;;6.88;97.13
51468;BME280;37545;45.302;-122.946;2023-01-24T07:57:50;102791.81;;;6.90;97.44
51468;BME280;37545;45.302;-122.946;2023-01-24T08:00:19;102789.44;;;6.93;96.43
51468;BME280;37545;45.302;-122.946;2023-01-24T08:02:48;102805.91;;;6.96;98.29
51468;BME280;37545;45.302;-122.946;2023-01-24T08:05:19;102809.50;;;6.98;98.59
51468;BME280;37545;45.302;-122.946;2023-01-24T08:07:47;102810.28;;;6.97;98.58
51468;BME280;37545;45.302;-122.946;2023-01-24T08:10:23;102798.19;;;6.96;96.47
51468;BME280;37545;45.302;-122.946;2023-01-24T08:12:52;102813.53;;;6.94;96.74
51468;BME280;37545;45.302;-122.946;2023-01-24T08:15:21;102813.63;;;6.96;97.06
51468;BME280;37545;45.302;-122.946;2023-01-24T08:17:49;102807.72;;;6.97;96.38
51468;BME280;37545;45.302;-122.946;2023-01-24T08:20:20;102810.38;;;6.98;96.04
51468;BME280;37545;45.302;-122.946;2023-01-24T08:22:48;102808.59;;;6.97;95.82
51468;BME280;37545;45.302;-122.946;2023-01-24T08:25:21;102810.28;;;6.97;96.82
51468;BME280;37545;45.302;-122.946;2023-01-24T08:27:50;102811.72;;;6.93;96.83
51468;BME280;37545;45.302;-122.946;2023-01-24T08:30:19;102814.72;;;6.87;96.57
51468;BME280;37545;45.302;-122.946;2023-01-24T08:32:48;102809.69;;;6.89;97.53
51468;BME280;37545;45.302;-122.946;2023-01-24T08:35:16;102802.31;;;6.93;97.40
51468;BME280;37545;45.302;-122.946;2023-01-24T08:37:47;102791.25;;;6.95;96.65
51468;BME280;37545;45.302;-122.946;2023-01-24T08:40:16;102770.19;;;6.88;97.04
51468;BME280;37545;45.302;-122.946;2023-01-24T08:42:45;102763.53;;;6.80;98.80
51468;BME280;37545;45.302;-122.946;2023-01-24T08:45:14;102766.03;;;6.79;98.09
51468;BME280;37545;45.302;-122.946;2023-01-24T08:47:42;102767.44;;;6.75;97.49
51468;BME280;37545;45.302;-122.946;2023-01-24T08:50:11;102780.97;;;6.72;97.69
51468;BME280;37545;45.302;-122.946;2023-01-24T08:52:42;102784.09;;;6.68;96.42
51468;BME280;37545;45.302;-122.946;2023-01-24T08:55:13;102791.44;;;6.64;96.55
51468;BME280;37545;45.302;-122.946;2023-01-24T08:57:41;102794.81;;;6.63;95.55
51468;BME280;37545;45.302;-122.946;2023-01-24T09:00:11;102800.19;;;6.66;95.67
51468;BME280;37545;45.302;-122.946;2023-01-24T09:02:40;102807.13;;;6.67;95.61
51468;BME280;37545;45.302;-122.946;2023-01-24T09:05:09;102805.47;;;6.67;95.64
51468;BME280;37545;45.302;-122.946;2023-01-24T09:07:37;102802.75;;;6.66;94.45
51468;BME280;37545;45.302;-122.946;2023-01-24T09:10:09;102807.53;;;6.61;93.60
51468;BME280;37545;45.302;-122.946;2023-01-24T09:12:39;102805.75;;;6.60;94.21
51468;BME280;37545;45.302;-122.946;2023-01-24T09:15:08;102809.59;;;6.65;94.77
51468;BME280;37545;45.302;-122.946;2023-01-24T09:17:37;102806.47;;;6.69;94.70
51468;BME280;37545;45.302;-122.946;2023-01-24T09:20:08;102815.97;;;6.70;94.28
51468;BME280;37545;45.302;-122.946;2023-01-24T09:22:36;102815.22;;;6.71;94.12
51468;BME280;37545;45.302;-122.946;2023-01-24T09:25:06;102815.31;;;6.73;95.47
51468;BME280;37545;45.302;-122.946;2023-01-24T09:27:35;102823.28;;;6.76;94.64
51468;BME280;37545;45.302;-122.946;2023-01-24T09:30:07;102817.22;;;6.76;94.54
51468;BME280;37545;45.302;-122.946;2023-01-24T09:32:36;102819.78;;;6.76;94.91
51468;BME280;37545;45.302;-122.946;2023-01-24T09:35:06;102817.34;;;6.77;94.99
51468;BME280;37545;45.302;-122.946;2023-01-24T09:37:36;102828.66;;;6.79;94.10
51468;BME280;37545;45.302;-122.946;2023-01-24T09:40:05;102815.88;;;6.69;94.54
51468;BME280;37545;45.302;-122.946;2023-01-24T09:42:39;102840.09;;;6.83;93.61
51468;BME280;37545;45.302;-122.946;2023-01-24T09:45:16;102836.75;;;6.84;94.12
51468;BME280;37545;45.302;-122.946;2023-01-24T09:47:49;102831.00;;;6.76;93.49
51468;BME280;37545;45.302;-122.946;2023-01-24T09:50:22;102831.38;;;6.81;94.48
51468;BME280;37545;45.302;-122.946;2023-01-24T09:52:53;102828.13;;;6.83;93.98
51468;BME280;37545;45.302;-122.946;2023-01-24T09:55:25;102824.66;;;6.83;92.43
51468;BME280;37545;45.302;-122.946;2023-01-24T09:57:58;102828.31;;;6.75;92.01
51468;BME280;37545;45.302;-122.946;2023-01-24T10:00:35;102835.91;;;6.73;93.54
51468;BME280;37545;45.302;-122.946;2023-01-24T10:03:14;102844.19;;;6.69;93.43
51468;BME280;37545;45.302;-122.946;2023-01-24T10:05:47;102847.16;;;6.63;94.88
51468;BME280;37545;45.302;-122.946;2023-01-24T10:08:27;102853.19;;;6.64;94.20
51468;BME280;37545;45.302;-122.946;2023-01-24T10:11:09;102851.53;;;6.64;93.52
51468;BME280;37545;45.302;-122.946;2023-01-24T10:14:01;102845.91;;;6.58;92.85
51468;BME280;37545;45.302;-122.946;2023-01-24T10:16:56;102841.94;;;6.52;93.64
51468;BME280;37545;45.302;-122.946;2023-01-24T10:22:42;102835.25;;;6.54;94.61
51468;BME280;37545;45.302;-122.946;2023-01-24T10:25:18;102842.97;;;6.54;94.53
51468;BME280;37545;45.302;-122.946;2023-01-24T10:27:49;102838.56;;;6.53;93.81
51468;BME280;37545;45.302;-122.946;2023-01-24T10:30:23;102841.94;;;6.52;94.29
51468;BME280;37545;45.302;-122.946;2023-01-24T10:32:59;102852.88;;;6.49;93.36
51468;BME280;37545;45.302;-122.946;2023-01-24T10:35:32;102857.53;;;6.43;96.19
51468;BME280;37545;45.302;-122.946;2023-01-24T10:38:07;102851.50;;;6.42;96.01
51468;BME280;37545;45.302;-122.946;2023-01-24T10:40:52;102862.59;;;6.31;98.12
51468;BME280;37545;45.302;-122.946;2023-01-24T10:43:23;102860.16;;;6.22;98.08
51468;BME280;37545;45.302;-122.946;2023-01-24T10:45:57;102861.88;;;6.12;98.72
51468;BME280;37545;45.302;-122.946;2023-01-24T10:48:39;102858.16;;;6.08;98.74
51468;BME280;37545;45.302;-122.946;2023-01-24T10:51:14;102868.56;;;6.10;99.43
51468;BME280;37545;45.302;-122.946;2023-01-24T10:53:43;102867.78;;;6.11;99.22
51468;BME280;37545;45.302;-122.946;2023-01-24T10:56:14;102869.59;;;6.12;98.55
51468;BME280;37545;45.302;-122.946;2023-01-24T10:58:54;102872.16;;;6.12;98.43
51468;BME280;37545;45.302;-122.946;2023-01-24T11:01:25;102870.59;;;6.14;98.01
51468;BME280;37545;45.302;-122.946;2023-01-24T11:04:13;102868.03;;;6.14;97.11
51468;BME280;37545;45.302;-122.946;2023-01-24T11:06:45;102864.47;;;6.12;96.98
51468;BME280;37545;45.302;-122.946;2023-01-24T11:09:16;102862.66;;;6.11;96.99
51468;BME280;37545;45.302;-122.946;2023-01-24T11:11:47;102860.59;;;6.06;96.86
51468;BME280;37545;45.302;-122.946;2023-01-24T11:14:21;102858.53;;;6.02;95.21
51468;BME280;37545;45.302;-122.946;2023-01-24T11:16:52;102853.69;;;5.95;95.89
51468;BME280;37545;45.302;-122.946;2023-01-24T11:19:27;102846.72;;;5.84;96.92
51468;BME280;37545;45.302;-122.946;2023-01-24T11:21:57;102839.84;;;5.73;98.64
51468;BME280;37545;45.302;-122.946;2023-01-24T11:24:28;102838.03;;;5.61;98.09
51468;BME280;37545;45.302;-122.946;2023-01-24T11:27:03;102853.69;;;5.64;97.67
51468;BME280;37545;45.302;-122.946;2023-01-24T11:29:38;102868.88;;;5.61;97.10
51468;BME280;37545;45.302;-122.946;2023-01-24T11:32:23;102869.63;;;5.60;97.33
51468;BME280;37545;45.302;-122.946;2023-01-24T11:35:01;102865.78;;;5.55;96.63
51468;BME280;37545;45.302;-122.946;2023-01-24T11:37:45;102861.16;;;5.51;96.32
51468;BME280;37545;45.302;-122.946;2023-01-24T11:40:28;102856.50;;;5.47;96.30
51468;BME280;37545;45.302;-122.946;2023-01-24T11:43:09;102853.47;;;5.41;96.01
51468;BME280;37545;45.302;-122.946;2023-01-24T11:45:53;102856.53;;;5.37;96.46
51468;BME280;37545;45.302;-122.946;2023-01-24T11:48:27;102857.81;;;5.32;95.42
51468;BME280;37545;45.302;-122.946;2023-01-24T11:51:07;102858.81;;;5.23;95.29
51468;BME280;37545;45.302;-122.946;2023-01-24T11:56:33;102844.81;;;5.10;97.72
51468;BME280;37545;45.302;-122.946;2023-01-24T12:02:25;102841.88;;;5.05;97.94
51468;BME280;37545;45.302;-122.946;2023-01-24T12:05:05;102851.88;;;5.02;97.91
51468;BME280;37545;45.302;-122.946;2023-01-24T12:07:49;102851.75;;;5.00;97.77
51468;BME280;37545;45.302;-122.946;2023-01-24T12:10:27;102848.00;;;4.97;97.40
51468;BME280;37545;45.302;-122.946;2023-01-24T12:13:04;102847.75;;;4.94;95.94
51468;BME280;37545;45.302;-122.946;2023-01-24T12:15:38;102835.50;;;4.81;96.12
51468;BME280;37545;45.302;-122.946;2023-01-24T12:18:39;102838.38;;;4.84;96.21
51468;BME280;37545;45.302;-122.946;2023-01-24T12:21:10;102837.97;;;4.79;96.23
51468;BME280;37545;45.302;-122.946;2023-01-24T12:23:49;102832.56;;;4.76;96.27
51468;BME280;37545;45.302;-122.946;2023-01-24T12:26:22;102822.53;;;4.69;95.42
51468;BME280;37545;45.302;-122.946;2023-01-24T12:29:00;102825.50;;;4.64;96.65
51468;BME280;37545;45.302;-122.946;2023-01-24T12:31:41;102832.00;;;4.60;97.86
51468;BME280;37545;45.302;-122.946;2023-01-24T12:34:31;102832.53;;;4.56;96.80
51468;BME280;37545;45.302;-122.946;2023-01-24T12:37:05;102840.56;;;4.50;97.20
51468;BME280;37545;45.302;-122.946;2023-01-24T12:39:46;102844.25;;;4.44;96.59
51468;BME280;37545;45.302;-122.946;2023-01-24T12:42:21;102842.97;;;4.38;97.51
51468;BME280;37545;45.302;-122.946;2023-01-24T12:44:57;102841.50;;;4.32;97.64
51468;BME280;37545;45.302;-122.946;2023-01-24T12:47:32;102843.69;;;4.27;97.81
51468;BME280;37545;45.302;-122.946;2023-01-24T12:50:14;102838.16;;;4.23;97.96
51468;BME280;37545;45.302;-122.946;2023-01-24T12:52:52;102833.66;;;4.20;97.92
51468;BME280;37545;45.302;-122.946;2023-01-24T12:55:30;102847.72;;;4.15;97.57
51468;BME280;37545;45.302;-122.946;2023-01-24T12:58:03;102857.69;;;4.12;96.77
51468;BME280;37545;45.302;-122.946;2023-01-24T13:00:40;102864.06;;;4.07;96.98
51468;BME280;37545;45.302;-122.946;2023-01-24T13:03:26;102863.66;;;4.02;97.96
51468;BME280;37545;45.302;-122.946;2023-01-24T13:06:03;102866.84;;;3.99;98.78
51468;BME280;37545;45.302;-122.946;2023-01-24T13:08:45;102866.56;;;3.96;97.76
51468;BME280;37545;45.302;-122.946;2023-01-24T13:11:22;102860.88;;;3.90;97.36
51468;BME280;37545;45.302;-122.946;2023-01-24T13:14:07;102846.78;;;3.85;97.46
51468;BME280;37545;45.302;-122.946;2023-01-24T13:19:53;102838.19;;;3.66;99.45
51468;BME280;37545;45.302;-122.946;2023-01-24T13:22:30;102842.94;;;3.52;100.00
51468;BME280;37545;45.302;-122.946;2023-01-24T13:25:11;102845.50;;;3.52;100.00